createdAt,value
2024-01-21T05:53:24.807Z,8.55
2024-01-21T05:55:52.901Z,9.07
2024-01-21T05:58:20.552Z,4.47
2024-01-21T06:00:48.337Z,7.82
2024-01-21T06:03:16.205Z,8.20
2024-01-21T06:05:43.965Z,3.83
2024-01-21T06:08:11.894Z,2.55
2024-01-21T06:10:39.602Z,5.78
2024-01-21T06:13:07.330Z,4.90
2024-01-21T06:15:35.255Z,3.55
2024-01-21T06:18:03.033Z,2.20
2024-01-21T06:20:30.857Z,1.67
2024-01-21T06:22:59.152Z,3.20
2024-01-21T06:25:26.926Z,1.63
2024-01-21T06:27:54.615Z,2.60
2024-01-21T06:30:24.376Z,3.22
2024-01-21T06:32:59.541Z,3.72
2024-01-21T06:35:31.271Z,6.35
2024-01-21T06:37:59.392Z,4.95
2024-01-21T06:40:27.122Z,8.35
2024-01-21T06:42:54.823Z,5.28
2024-01-21T06:45:22.784Z,4.55
2024-01-21T06:47:51.707Z,16.02
2024-01-21T06:50:20.478Z,4.63
2024-01-21T06:52:48.353Z,4.28
2024-01-21T06:55:16.095Z,4.97
2024-01-21T06:57:43.998Z,6.18
2024-01-21T07:00:13.035Z,5.38
2024-01-21T07:02:40.625Z,4.18
2024-01-21T07:05:09.099Z,9.45
2024-01-21T07:07:36.892Z,6.22
2024-01-21T07:10:04.863Z,4.70
2024-01-21T07:12:32.495Z,6.30
2024-01-21T07:15:00.368Z,3.95
2024-01-21T07:17:27.990Z,3.33
2024-01-21T07:19:55.826Z,3.55
2024-01-21T07:22:23.475Z,7.18
2024-01-21T07:24:51.168Z,5.57
2024-01-21T07:27:18.912Z,4.40
2024-01-21T07:29:46.714Z,4.80
2024-01-21T07:32:14.274Z,9.10
2024-01-21T07:34:42.154Z,3.97
2024-01-21T07:37:09.917Z,6.20
2024-01-21T07:39:37.545Z,9.00
2024-01-21T07:42:05.476Z,7.72
2024-01-21T07:44:33.206Z,66.80
2024-01-21T07:47:00.764Z,36.40
2024-01-21T07:49:28.486Z,25.50
2024-01-21T07:51:56.263Z,17.55
2024-01-21T07:54:23.969Z,13.88
2024-01-21T07:56:51.505Z,20.80
2024-01-21T07:59:19.321Z,14.93
2024-01-21T08:01:47.017Z,13.73
2024-01-21T08:04:15.156Z,20.23
2024-01-21T08:06:43.310Z,11.90
2024-01-21T08:09:11.031Z,12.05
2024-01-21T08:11:38.700Z,10.02
2024-01-21T08:14:06.678Z,16.35
2024-01-21T08:16:34.268Z,19.13
2024-01-21T08:19:15.346Z,19.65
2024-01-21T08:21:44.128Z,16.95
2024-01-21T08:24:12.798Z,19.45
2024-01-21T08:26:41.403Z,16.33
2024-01-21T08:29:09.174Z,10.93
2024-01-21T08:31:44.256Z,16.25
2024-01-21T08:34:12.737Z,9.13
2024-01-21T08:36:46.122Z,14.35
2024-01-21T08:39:14.219Z,10.55
2024-01-21T08:41:42.337Z,11.73
2024-01-21T08:44:10.269Z,12.13
2024-01-21T08:46:39.258Z,10.70
2024-01-21T08:49:07.134Z,10.35
2024-01-21T08:51:36.044Z,8.75
2024-01-21T08:54:04.433Z,12.23
2024-01-21T08:56:33.891Z,12.63
2024-01-21T08:59:01.866Z,13.40
2024-01-21T09:01:30.349Z,16.10
2024-01-21T09:03:59.465Z,13.63
2024-01-21T09:06:27.358Z,7.70
2024-01-21T09:08:56.336Z,12.77
2024-01-21T09:11:24.935Z,7.03
2024-01-21T09:13:52.699Z,9.82
2024-01-21T09:16:21.312Z,9.88
2024-01-21T09:18:53.528Z,9.48
2024-01-21T09:21:27.448Z,11.25
2024-01-21T09:24:06.378Z,12.25
2024-01-21T09:26:36.377Z,11.85
2024-01-21T09:29:05.024Z,13.65
2024-01-21T09:31:34.413Z,19.58
2024-01-21T09:34:02.731Z,9.82
2024-01-21T09:36:30.758Z,13.00
2024-01-21T09:38:58.527Z,12.23
2024-01-21T09:41:51.707Z,16.40
2024-01-21T09:44:32.317Z,11.13
2024-01-21T09:47:11.864Z,16.27
2024-01-21T09:49:43.634Z,16.55
2024-01-21T09:52:17.158Z,12.23
2024-01-21T09:55:05.673Z,19.27
2024-01-21T09:58:00.885Z,15.18
2024-01-21T10:00:38.536Z,18.88
2024-01-21T10:06:18.525Z,23.95
2024-01-21T10:08:59.598Z,16.10
2024-01-21T10:11:38.517Z,17.15
2024-01-21T10:14:12.188Z,19.35
2024-01-21T10:16:51.254Z,22.55
2024-01-21T10:19:49.010Z,16.08
2024-01-21T10:22:33.683Z,15.57
2024-01-21T10:28:12.873Z,18.75
2024-01-21T10:30:48.162Z,14.90
2024-01-21T10:36:08.769Z,18.92
2024-01-21T10:38:53.047Z,13.77
2024-01-21T10:41:35.380Z,17.35
2024-01-21T10:44:11.286Z,14.60
2024-01-21T10:46:46.243Z,19.15
2024-01-21T10:49:21.721Z,19.73
2024-01-21T10:51:58.189Z,23.23
2024-01-21T10:54:40.182Z,21.08
2024-01-21T10:57:08.841Z,15.85
2024-01-21T10:59:42.600Z,19.48
2024-01-21T11:02:14.554Z,19.00
2024-01-21T11:07:20.775Z,19.85
2024-01-21T11:09:51.115Z,23.83
2024-01-21T11:12:19.958Z,29.48
2024-01-21T11:14:49.131Z,18.35
2024-01-21T11:17:21.321Z,22.85
2024-01-21T11:19:56.785Z,23.30
2024-01-21T11:22:27.231Z,18.20
2024-01-21T11:24:57.858Z,27.90
2024-01-21T11:27:29.406Z,14.88
2024-01-21T11:29:59.396Z,15.77
2024-01-21T11:32:30.709Z,16.63
2024-01-21T11:35:18.024Z,23.13
2024-01-21T11:37:53.798Z,22.98
2024-01-21T11:40:21.786Z,16.13
2024-01-21T11:42:51.820Z,19.27
2024-01-21T11:45:20.883Z,19.40
2024-01-21T11:47:48.810Z,22.27
2024-01-21T11:50:19.470Z,21.63
2024-01-21T11:52:47.602Z,12.95
2024-01-21T11:55:22.481Z,17.30
2024-01-21T11:57:50.368Z,14.55
2024-01-21T12:00:18.315Z,17.45
2024-01-21T12:02:47.894Z,14.25
2024-01-21T12:05:19.832Z,17.02
2024-01-21T12:07:48.250Z,17.88
2024-01-21T12:10:16.230Z,13.35
2024-01-21T12:12:44.025Z,15.80
2024-01-21T12:15:11.980Z,12.52
2024-01-21T12:17:39.774Z,14.20
2024-01-21T12:20:09.110Z,10.55
2024-01-21T12:22:38.677Z,12.05
2024-01-21T12:25:09.966Z,13.90
2024-01-21T12:27:37.921Z,13.82
2024-01-21T12:30:12.729Z,15.57
2024-01-21T12:32:52.969Z,19.02
2024-01-21T12:35:24.314Z,17.02
2024-01-21T12:37:52.230Z,15.00
2024-01-21T12:40:20.039Z,14.60
2024-01-21T12:42:47.997Z,12.65
2024-01-21T12:45:15.852Z,10.70
2024-01-21T12:47:43.522Z,11.55
2024-01-21T12:50:11.728Z,11.77
2024-01-21T12:52:39.464Z,21.70
2024-01-21T12:55:08.403Z,12.65
2024-01-21T12:57:36.050Z,11.95
2024-01-21T13:00:05.857Z,10.52
2024-01-21T13:02:33.517Z,14.80
2024-01-21T13:05:01.200Z,15.98
2024-01-21T13:07:29.386Z,13.13
2024-01-21T13:09:58.709Z,14.55
2024-01-21T13:12:27.196Z,16.58
2024-01-21T13:14:56.880Z,13.52
2024-01-21T13:17:25.163Z,17.58
2024-01-21T13:19:53.246Z,11.75
2024-01-21T13:22:21.168Z,13.52
2024-01-21T13:24:49.076Z,17.75
2024-01-21T13:27:28.728Z,20.55
2024-01-21T13:30:16.935Z,13.90
2024-01-21T13:32:44.938Z,16.85
2024-01-21T13:35:13.135Z,19.55
2024-01-21T13:37:41.793Z,14.80
2024-01-21T13:40:10.318Z,14.90
2024-01-21T13:42:39.187Z,19.25
2024-01-21T13:45:09.977Z,17.13
2024-01-21T13:47:38.910Z,15.23
2024-01-21T13:50:06.934Z,16.05
2024-01-21T13:52:34.969Z,12.60
2024-01-21T13:55:06.723Z,13.05
2024-01-21T13:57:34.563Z,16.67
2024-01-21T14:00:02.331Z,11.55
2024-01-21T14:02:32.605Z,24.65
2024-01-21T14:05:00.850Z,18.00
2024-01-21T14:07:28.431Z,12.18
2024-01-21T14:09:58.216Z,12.80
2024-01-21T14:12:26.251Z,16.42
2024-01-21T14:14:54.102Z,13.13
2024-01-21T14:17:26.231Z,13.82
2024-01-21T14:19:54.712Z,21.17
2024-01-21T14:22:23.038Z,24.17
2024-01-21T14:24:52.388Z,15.25
2024-01-21T14:27:20.610Z,16.88
2024-01-21T14:29:57.381Z,18.83
2024-01-21T14:32:26.359Z,12.73
2024-01-21T14:34:53.975Z,16.17
2024-01-21T14:37:22.358Z,14.40
2024-01-21T14:39:51.088Z,13.98
2024-01-21T14:42:18.905Z,20.30
2024-01-21T14:44:46.574Z,15.05
2024-01-21T14:47:14.871Z,15.00
2024-01-21T14:49:42.569Z,19.55
2024-01-21T14:52:10.286Z,18.88
2024-01-21T14:54:38.801Z,14.88
2024-01-21T14:57:06.695Z,17.10
2024-01-21T14:59:35.355Z,14.65
2024-01-21T15:02:03.920Z,20.48
2024-01-21T15:04:33.732Z,23.60
2024-01-21T15:07:01.670Z,21.92
2024-01-21T15:09:29.563Z,22.33
2024-01-21T15:11:57.284Z,27.48
2024-01-21T15:14:33.139Z,21.17
2024-01-21T15:17:00.977Z,21.00
2024-01-21T15:19:28.658Z,24.48
2024-01-21T15:21:56.872Z,28.55
2024-01-21T15:24:24.843Z,25.40
2024-01-21T15:26:53.291Z,18.20
2024-01-21T15:29:20.947Z,23.60
2024-01-21T15:31:48.680Z,27.50
2024-01-21T15:34:16.365Z,13.95
2024-01-21T15:36:44.149Z,22.52
2024-01-21T15:39:12.767Z,18.48
2024-01-21T15:41:41.412Z,16.98
2024-01-21T15:44:09.519Z,12.35
2024-01-21T15:46:37.710Z,11.90
2024-01-21T15:49:05.395Z,14.18
2024-01-21T15:51:33.767Z,12.02
2024-01-21T15:54:01.606Z,8.73
2024-01-21T15:56:30.931Z,16.98
2024-01-21T15:59:01.564Z,16.13
2024-01-21T16:01:29.966Z,13.93
2024-01-21T16:03:58.884Z,19.88
2024-01-21T16:06:27.149Z,8.82
2024-01-21T16:08:55.771Z,11.20
2024-01-21T16:11:23.809Z,12.13
2024-01-21T16:13:52.493Z,13.40
2024-01-21T16:16:20.291Z,15.23
2024-01-21T16:18:48.112Z,21.33
2024-01-21T16:21:16.378Z,23.10
2024-01-21T16:23:44.634Z,23.55
2024-01-21T16:26:12.700Z,20.08
2024-01-21T16:28:41.105Z,20.15
2024-01-21T16:31:09.337Z,17.08
2024-01-21T16:33:36.974Z,21.35
2024-01-21T16:36:05.002Z,17.50
2024-01-21T16:38:32.758Z,17.13
2024-01-21T16:41:00.420Z,17.38
2024-01-21T16:43:28.381Z,16.48
2024-01-21T16:45:56.280Z,27.80
2024-01-21T16:48:25.380Z,23.80
2024-01-21T16:50:58.290Z,21.85
2024-01-21T16:53:30.990Z,33.47
2024-01-21T16:56:01.193Z,29.20
2024-01-21T16:58:29.776Z,30.42
2024-01-21T17:01:01.253Z,23.15
2024-01-21T17:03:30.126Z,29.75
2024-01-21T17:05:58.326Z,31.20
2024-01-21T17:08:26.256Z,19.02
2024-01-21T17:11:11.890Z,19.90
2024-01-21T17:13:40.705Z,20.08
2024-01-21T17:16:09.341Z,20.58
2024-01-21T17:18:50.920Z,26.48
2024-01-21T17:21:18.909Z,32.92
2024-01-21T17:23:46.904Z,29.92
2024-01-21T17:26:16.201Z,20.70
2024-01-21T17:28:45.971Z,30.52
2024-01-21T17:31:13.634Z,17.77
2024-01-21T17:33:43.348Z,20.13
2024-01-21T17:36:14.197Z,16.42
2024-01-21T17:38:42.049Z,16.00
2024-01-21T17:41:09.857Z,23.95
2024-01-21T17:43:38.135Z,17.55
2024-01-21T17:46:09.475Z,18.25
2024-01-21T17:48:37.447Z,19.58
2024-01-21T17:51:05.878Z,23.70
2024-01-21T17:53:35.127Z,18.27
2024-01-21T17:56:03.093Z,27.92
2024-01-21T17:58:31.037Z,32.22
2024-01-21T18:01:00.034Z,24.67
2024-01-21T18:03:28.012Z,23.50
2024-01-21T18:05:55.850Z,17.92
2024-01-21T18:08:23.702Z,23.85
2024-01-21T18:10:52.948Z,22.05
2024-01-21T18:13:20.662Z,20.00
2024-01-21T18:15:48.367Z,21.33
2024-01-21T18:18:16.172Z,13.52
